createdAt,value
2018-07-08T02:42:56.133Z,97550.28
2018-07-08T02:45:25.337Z,97551.72
2018-07-08T02:47:54.695Z,97552.08
2018-07-08T02:50:23.786Z,97554.37
2018-07-08T02:52:53.063Z,97558.37
2018-07-08T02:55:22.379Z,97560.41
2018-07-08T02:57:51.437Z,97560.21
2018-07-08T03:00:20.649Z,97560.41
2018-07-08T03:02:49.783Z,97565.30
2018-07-08T03:05:18.536Z,97571.93
2018-07-08T03:07:47.781Z,97573.27
2018-07-08T03:10:16.689Z,97570.77
2018-07-08T03:12:45.888Z,97566.20
2018-07-08T03:15:15.223Z,97573.19
2018-07-08T03:17:44.213Z,97568.19
2018-07-08T03:20:13.378Z,97572.64
2018-07-08T03:22:42.451Z,97573.39
2018-07-08T03:25:11.491Z,97573.08
2018-07-08T03:27:40.815Z,97575.50
2018-07-08T03:30:09.955Z,97576.02
2018-07-08T03:32:39.210Z,97583.77
2018-07-08T03:35:08.580Z,97583.47
2018-07-08T03:37:37.737Z,97581.55
2018-07-08T03:40:06.997Z,97584.55
2018-07-08T03:42:36.264Z,97588.80
2018-07-08T03:45:05.560Z,97584.08
2018-07-08T03:47:34.547Z,97578.38
2018-07-08T03:50:03.892Z,97582.05
2018-07-08T03:52:33.163Z,97579.98
2018-07-08T03:55:02.370Z,97585.17
2018-07-08T03:57:31.485Z,97581.58
2018-07-08T04:00:00.680Z,97578.67
2018-07-08T04:02:29.470Z,97588.77
2018-07-08T04:04:58.714Z,97587.35
2018-07-08T04:07:27.794Z,97586.44
2018-07-08T04:09:56.894Z,97586.94
2018-07-08T04:12:26.107Z,97585.25
2018-07-08T04:14:55.302Z,97586.94
2018-07-08T04:17:24.433Z,97580.91
2018-07-08T04:19:55.583Z,97591.28
2018-07-08T04:22:24.456Z,97592.00
2018-07-08T04:24:53.721Z,97588.00
2018-07-08T04:27:22.804Z,97592.11
2018-07-08T04:29:51.754Z,97593.56
2018-07-08T04:32:21.046Z,97594.04
2018-07-08T04:34:50.158Z,97596.20
2018-07-08T04:37:18.969Z,97595.22
2018-07-08T04:39:48.078Z,97597.08
2018-07-08T04:42:17.416Z,97587.09
2018-07-08T04:44:46.369Z,97593.41
2018-07-08T04:47:15.674Z,97589.17
2018-07-08T04:49:44.831Z,97592.14
2018-07-08T04:52:13.959Z,97591.33
2018-07-08T04:54:43.206Z,97584.98
2018-07-08T04:57:12.198Z,97590.92
2018-07-08T04:59:40.993Z,97589.04
2018-07-08T05:02:10.137Z,97592.35
2018-07-08T05:04:39.415Z,97594.23
2018-07-08T05:07:08.718Z,97601.55
2018-07-08T05:09:37.979Z,97602.00
2018-07-08T05:12:06.818Z,97602.51
2018-07-08T05:14:35.799Z,97604.82
2018-07-08T05:17:05.160Z,97602.64
2018-07-08T05:19:34.295Z,97603.26
2018-07-08T05:22:03.426Z,97604.92
2018-07-08T05:24:32.904Z,97604.53
2018-07-08T05:27:02.267Z,97610.00
2018-07-08T05:29:31.975Z,97607.44
2018-07-08T05:32:01.484Z,97606.48
2018-07-08T05:34:30.505Z,97607.70
2018-07-08T05:36:59.701Z,97616.05
2018-07-08T05:39:28.778Z,97622.75
2018-07-08T05:41:57.958Z,97616.16
2018-07-08T05:44:27.104Z,97622.45
2018-07-08T05:46:56.259Z,97630.67
2018-07-08T05:49:25.165Z,97626.83
2018-07-08T05:51:54.253Z,97624.75
2018-07-08T05:54:23.515Z,97627.05
2018-07-08T05:56:52.775Z,97622.95
2018-07-08T05:59:22.019Z,97617.77
2018-07-08T06:01:51.158Z,97615.36
2018-07-08T06:04:20.510Z,97618.28
2018-07-08T06:06:50.131Z,97617.44
2018-07-08T06:09:19.034Z,97621.81
2018-07-08T06:11:47.830Z,97620.12
2018-07-08T06:14:17.044Z,97622.31
2018-07-08T06:16:45.897Z,97621.33
2018-07-08T06:19:15.107Z,97626.06
2018-07-08T06:21:44.322Z,97628.52
2018-07-08T06:24:13.532Z,97636.53
2018-07-08T06:26:42.251Z,97637.96
2018-07-08T06:29:11.553Z,97635.30
2018-07-08T06:31:40.728Z,97639.91
2018-07-08T06:34:09.986Z,97634.83
2018-07-08T06:36:39.154Z,97638.58
2018-07-08T06:39:08.378Z,97629.71
2018-07-08T06:41:37.576Z,97638.45
2018-07-08T06:44:06.633Z,97635.78
2018-07-08T06:46:35.693Z,97632.98
2018-07-08T06:49:04.751Z,97628.75
2018-07-08T06:51:34.006Z,97631.90
2018-07-08T06:54:03.312Z,97628.98
2018-07-08T06:56:32.276Z,97628.25
2018-07-08T06:59:01.711Z,97625.23
2018-07-08T07:01:30.658Z,97625.09
2018-07-08T07:03:59.968Z,97619.97
2018-07-08T07:06:29.179Z,97624.32
2018-07-08T07:08:58.351Z,97620.19
2018-07-08T07:11:27.599Z,97622.51
2018-07-08T07:13:56.543Z,97611.83
2018-07-08T07:16:25.427Z,97616.58
2018-07-08T07:18:54.540Z,97621.35
2018-07-08T07:21:23.758Z,97619.55
2018-07-08T07:23:53.059Z,97617.47
2018-07-08T07:26:22.398Z,97621.38
2018-07-08T07:28:51.295Z,97625.08
2018-07-08T07:31:20.637Z,97620.25
2018-07-08T07:33:49.836Z,97623.87
2018-07-08T07:36:19.082Z,97624.24
2018-07-08T07:38:48.188Z,97630.66
2018-07-08T07:41:17.242Z,97630.66
2018-07-08T07:43:46.209Z,97631.16
2018-07-08T07:46:15.130Z,97627.98
2018-07-08T07:48:44.203Z,97627.89
2018-07-08T07:51:13.039Z,97628.12
2018-07-08T07:53:42.271Z,97630.92
2018-07-08T07:56:11.227Z,97628.99
2018-07-08T07:58:40.111Z,97633.14
2018-07-08T08:01:09.530Z,97632.98
2018-07-08T08:03:38.306Z,97632.27
2018-07-08T08:06:07.584Z,97633.48
2018-07-08T08:08:36.956Z,97626.98
2018-07-08T08:11:06.069Z,97628.63
2018-07-08T08:13:35.274Z,97622.04
2018-07-08T08:16:04.347Z,97625.34
2018-07-08T08:18:33.495Z,97624.09
2018-07-08T08:21:02.799Z,97623.25
2018-07-08T08:23:32.123Z,97622.53
2018-07-08T08:26:01.026Z,97615.20
2018-07-08T08:28:29.984Z,97619.80
2018-07-08T08:30:59.182Z,97621.39
2018-07-08T08:33:28.776Z,97613.05
2018-07-08T08:35:57.931Z,97611.15
2018-07-08T08:38:27.219Z,97612.73
2018-07-08T08:40:56.408Z,97598.33
2018-07-08T08:43:25.611Z,97606.63
2018-07-08T08:45:54.447Z,97603.98
2018-07-08T08:48:23.647Z,97605.11
2018-07-08T08:50:52.790Z,97595.89
2018-07-08T08:53:21.938Z,97596.19
2018-07-08T08:55:51.541Z,97584.11
2018-07-08T08:58:20.630Z,97592.28
2018-07-08T09:00:49.680Z,97588.16
2018-07-08T09:03:18.558Z,97593.17
2018-07-08T09:05:47.680Z,97592.00
2018-07-08T09:08:16.965Z,97585.52
2018-07-08T09:10:45.790Z,97581.50
2018-07-08T09:13:19.355Z,97576.38
2018-07-08T09:15:48.535Z,97573.72
2018-07-08T09:18:17.834Z,97568.45
2018-07-08T09:20:47.094Z,97566.90
2018-07-08T09:23:16.199Z,97570.55
2018-07-08T09:25:45.297Z,97558.66
2018-07-08T09:28:14.481Z,97552.95
2018-07-08T09:30:43.557Z,97548.48
2018-07-08T09:33:12.511Z,97549.39
2018-07-08T09:35:41.647Z,97550.91
2018-07-08T09:38:10.887Z,97546.78
2018-07-08T09:40:40.104Z,97546.63
2018-07-08T09:43:09.167Z,97549.37
2018-07-08T09:45:38.252Z,97545.83
2018-07-08T09:48:07.446Z,97539.45
2018-07-08T09:50:36.625Z,97530.78
2018-07-08T09:53:05.975Z,97529.04
2018-07-08T09:55:35.243Z,97526.38
2018-07-08T09:58:04.573Z,97519.27
2018-07-08T10:00:33.326Z,97519.23
2018-07-08T10:03:02.458Z,97522.75
2018-07-08T10:05:31.300Z,97520.38
2018-07-08T10:08:00.333Z,97516.94
2018-07-08T10:10:29.517Z,97516.14
2018-07-08T10:12:58.789Z,97515.52
2018-07-08T10:15:27.569Z,97509.02
2018-07-08T10:17:56.766Z,97515.94
2018-07-08T10:20:25.960Z,97506.05
2018-07-08T10:22:55.050Z,97502.63
2018-07-08T10:25:24.255Z,97490.94
2018-07-08T10:28:02.732Z,97495.27
2018-07-08T10:30:31.995Z,97488.81
2018-07-08T10:33:01.165Z,97488.77
2018-07-08T10:35:41.055Z,97485.60
2018-07-08T10:38:10.419Z,97490.41
2018-07-08T10:40:39.705Z,97473.28
2018-07-08T10:43:08.726Z,97475.98
2018-07-08T10:45:38.036Z,97484.27
2018-07-08T10:48:07.922Z,97475.83
2018-07-08T10:50:37.204Z,97472.84
2018-07-08T10:53:06.467Z,97474.09
2018-07-08T10:55:35.615Z,97469.25
2018-07-08T10:58:04.433Z,97469.41
2018-07-08T11:00:33.476Z,97463.76
2018-07-08T11:03:02.771Z,97470.95
2018-07-08T11:05:31.778Z,97465.19
2018-07-08T11:08:00.794Z,97469.97
2018-07-08T11:10:29.993Z,97468.84
2018-07-08T11:12:59.046Z,97460.47
2018-07-08T11:15:27.954Z,97458.28
2018-07-08T11:17:57.279Z,97452.34
2018-07-08T11:20:26.262Z,97455.22
2018-07-08T11:22:55.202Z,97450.10
2018-07-08T11:25:24.279Z,97451.55
2018-07-08T11:27:53.347Z,97450.38
2018-07-08T11:30:22.566Z,97455.92
2018-07-08T11:32:51.568Z,97455.84
2018-07-08T11:35:20.750Z,97445.50
2018-07-08T11:37:49.836Z,97444.31
2018-07-08T11:40:19.049Z,97435.13
2018-07-08T11:42:48.195Z,97439.58
2018-07-08T11:45:17.449Z,97442.75
2018-07-08T11:47:46.423Z,97440.27
2018-07-08T11:50:15.673Z,97438.66
2018-07-08T11:52:44.702Z,97435.91
2018-07-08T11:55:13.634Z,97436.22
2018-07-08T11:57:42.601Z,97439.97
2018-07-08T12:00:11.802Z,97446.13
2018-07-08T12:02:41.207Z,97442.31
2018-07-08T12:05:10.266Z,97445.09
2018-07-08T12:07:39.418Z,97443.69
2018-07-08T12:10:08.625Z,97436.20
2018-07-08T12:12:37.650Z,97436.31
2018-07-08T12:15:06.966Z,97427.20
2018-07-08T12:17:35.992Z,97436.67
2018-07-08T12:20:05.275Z,97447.13
2018-07-08T12:22:34.456Z,97472.75
2018-07-08T12:25:03.592Z,97475.27
2018-07-08T12:27:32.769Z,97482.87
2018-07-08T12:30:01.590Z,97500.99
2018-07-08T12:32:30.846Z,97513.64
2018-07-08T12:34:59.955Z,97529.00
2018-07-08T12:37:29.049Z,97533.85
2018-07-08T12:39:57.971Z,97541.16
2018-07-08T12:42:27.163Z,97531.82
2018-07-08T12:44:56.370Z,97540.06
2018-07-08T12:47:25.599Z,97549.55
2018-07-08T12:49:54.741Z,97550.80
2018-07-08T12:52:23.710Z,97562.84
2018-07-08T12:54:53.622Z,97570.12
2018-07-08T12:57:22.671Z,97569.48
2018-07-08T12:59:51.950Z,97576.19
2018-07-08T13:02:21.260Z,97570.03
2018-07-08T13:04:50.623Z,97571.25
2018-07-08T13:07:19.486Z,97565.83
2018-07-08T13:09:48.574Z,97563.38
2018-07-08T13:12:17.922Z,97559.38
2018-07-08T13:14:47.138Z,97559.88
2018-07-08T13:17:16.435Z,97549.08
2018-07-08T13:19:45.394Z,97552.23
2018-07-08T13:22:14.336Z,97556.55
2018-07-08T13:24:43.486Z,97556.10
2018-07-08T13:27:12.319Z,97561.31
2018-07-08T13:29:41.279Z,97561.31
2018-07-08T13:32:10.436Z,97553.33
2018-07-08T13:34:39.489Z,97561.92
2018-07-08T13:37:08.585Z,97562.06
2018-07-08T13:39:37.878Z,97567.48
2018-07-08T13:42:06.675Z,97568.81
2018-07-08T13:44:35.892Z,97578.38
2018-07-08T13:47:05.212Z,97581.20
2018-07-08T13:49:34.878Z,97579.92
2018-07-08T13:52:04.205Z,97585.06
2018-07-08T13:54:33.330Z,97581.70
2018-07-08T13:57:02.429Z,97580.16
2018-07-08T13:59:31.514Z,97580.98
2018-07-08T14:02:00.743Z,97580.71
2018-07-08T14:04:29.656Z,97575.23
2018-07-08T14:06:59.129Z,97584.88
2018-07-08T14:09:28.319Z,97579.80
2018-07-08T14:11:57.574Z,97575.30
2018-07-08T14:14:26.700Z,97571.30
2018-07-08T14:16:55.826Z,97570.78
2018-07-08T14:19:24.980Z,97570.39
2018-07-08T14:21:54.267Z,97568.20
2018-07-08T14:24:23.200Z,97563.50
2018-07-08T14:26:52.576Z,97560.84
2018-07-08T14:29:21.667Z,97556.86
2018-07-08T14:31:50.797Z,97547.80
2018-07-08T14:34:20.047Z,97536.93
2018-07-08T14:36:48.963Z,97531.77
2018-07-08T14:39:18.073Z,97527.44
2018-07-08T14:41:46.922Z,97526.41
2018-07-08T14:44:15.879Z,97517.38
2018-07-08T14:46:45.216Z,97505.69
2018-07-08T14:49:15.122Z,97505.25
2018-07-08T14:51:44.018Z,97503.16
2018-07-08T14:54:13.010Z,97497.86
2018-07-08T14:56:42.240Z,97496.70
2018-07-08T14:59:11.346Z,97488.98
2018-07-08T15:01:40.843Z,97490.36
2018-07-08T15:04:09.817Z,97494.01
2018-07-08T15:06:38.993Z,97493.53
2018-07-08T15:09:09.911Z,97494.98
2018-07-08T15:11:39.139Z,97504.36
2018-07-08T15:14:08.596Z,97505.09
2018-07-08T15:16:37.787Z,97508.13
2018-07-08T15:19:07.427Z,97506.06
2018-07-08T15:21:36.425Z,97508.87
2018-07-08T15:24:05.553Z,97514.30
2018-07-08T15:26:34.796Z,97516.72
2018-07-08T15:29:04.008Z,97516.12
2018-07-08T15:31:33.262Z,97519.64
2018-07-08T15:34:02.401Z,97512.59
2018-07-08T15:36:31.458Z,97514.56
2018-07-08T15:39:00.715Z,97512.84
2018-07-08T15:41:29.678Z,97513.92
2018-07-08T15:43:58.631Z,97515.77
2018-07-08T15:46:27.993Z,97506.79
2018-07-08T15:48:57.157Z,97508.95
2018-07-08T15:51:26.225Z,97511.14
2018-07-08T15:53:55.259Z,97504.48
2018-07-08T15:56:24.459Z,97510.41
2018-07-08T15:58:53.692Z,97505.55
2018-07-08T16:01:22.843Z,97504.80
2018-07-08T16:03:51.998Z,97508.55
2018-07-08T16:06:21.306Z,97506.73
2018-07-08T16:08:50.523Z,97516.67
2018-07-08T16:11:19.532Z,97509.75
2018-07-08T16:13:48.462Z,97507.33
2018-07-08T16:16:17.470Z,97504.80
2018-07-08T16:18:47.324Z,97509.88
2018-07-08T16:21:16.558Z,97507.21
2018-07-08T16:23:46.399Z,97506.52
2018-07-08T16:26:15.534Z,97512.68
2018-07-08T16:28:44.868Z,97509.75
2018-07-08T16:31:13.664Z,97508.55
2018-07-08T16:33:42.821Z,97502.86
2018-07-08T16:36:11.813Z,97502.39
2018-07-08T16:38:40.674Z,97503.08
2018-07-08T16:41:09.807Z,97502.34
2018-07-08T16:43:39.152Z,97505.27
2018-07-08T16:46:08.445Z,97504.55
2018-07-08T16:48:37.810Z,97504.67
2018-07-08T16:51:06.802Z,97510.40
2018-07-08T16:53:35.790Z,97497.80
2018-07-08T16:56:04.921Z,97497.55
2018-07-08T16:58:34.223Z,97497.90
2018-07-08T17:01:03.545Z,97507.14
2018-07-08T17:03:32.775Z,97507.27
2018-07-08T17:06:02.035Z,97499.14
2018-07-08T17:08:31.243Z,97499.49
2018-07-08T17:11:00.496Z,97506.06
2018-07-08T17:13:29.730Z,97507.27
2018-07-08T17:15:58.672Z,97505.59
2018-07-08T17:18:27.789Z,97509.45
2018-07-08T17:20:57.018Z,97501.47
2018-07-08T17:23:25.989Z,97508.98
2018-07-08T17:25:55.116Z,97516.09
2018-07-08T17:28:24.442Z,97516.84
2018-07-08T17:30:53.294Z,97519.89
2018-07-08T17:33:22.665Z,97529.56
2018-07-08T17:35:51.855Z,97530.41
2018-07-08T17:38:22.092Z,97532.81
2018-07-08T17:40:51.450Z,97537.53
2018-07-08T17:43:20.356Z,97545.90
2018-07-08T17:45:50.157Z,97549.78
2018-07-08T17:48:19.282Z,97551.98
2018-07-08T17:50:48.513Z,97553.42
2018-07-08T17:53:17.676Z,97553.59
2018-07-08T17:55:46.494Z,97559.41
2018-07-08T17:58:15.792Z,97562.20
2018-07-08T18:00:45.054Z,97566.91
2018-07-08T18:03:14.393Z,97564.59
2018-07-08T18:05:43.344Z,97567.05
2018-07-08T18:08:12.297Z,97569.84
2018-07-08T18:10:41.662Z,97567.16
2018-07-08T18:13:10.629Z,97565.91
2018-07-08T18:15:40.391Z,97565.64
2018-07-08T18:18:10.898Z,97564.19
2018-07-08T18:20:40.211Z,97557.80
2018-07-08T18:23:09.132Z,97554.16
2018-07-08T18:25:38.355Z,97558.42
2018-07-08T18:28:07.543Z,97561.12
2018-07-08T18:30:37.395Z,97560.88
2018-07-08T18:33:06.976Z,97562.36
2018-07-08T18:35:36.325Z,97563.45
2018-07-08T18:38:05.823Z,97571.70
2018-07-08T18:40:34.910Z,97574.16
2018-07-08T18:43:04.243Z,97577.47
2018-07-08T18:45:34.570Z,97570.61
2018-07-08T18:48:04.090Z,97579.10
2018-07-08T18:50:33.179Z,97578.40
2018-07-08T18:53:01.939Z,97583.71
2018-07-08T18:55:31.122Z,97576.11
2018-07-08T18:58:00.564Z,97577.53
2018-07-08T19:00:29.919Z,97582.14
2018-07-08T19:02:59.803Z,97582.28
2018-07-08T19:05:28.708Z,97584.00
2018-07-08T19:07:57.742Z,97583.88
2018-07-08T19:10:26.823Z,97585.20
2018-07-08T19:12:55.963Z,97588.00
2018-07-08T19:15:25.218Z,97587.98
2018-07-08T19:17:54.533Z,97585.18
2018-07-08T19:20:23.775Z,97592.69
2018-07-08T19:22:52.981Z,97600.78
2018-07-08T19:25:22.189Z,97598.84
2018-07-08T19:27:51.119Z,97594.47
2018-07-08T19:30:20.110Z,97600.61
2018-07-08T19:32:49.531Z,97602.71
2018-07-08T19:35:18.716Z,97606.20
2018-07-08T19:37:47.813Z,97604.16
2018-07-08T19:40:16.854Z,97610.20
2018-07-08T19:42:46.165Z,97607.92
2018-07-08T19:45:15.403Z,97602.11
2018-07-08T19:47:44.762Z,97596.28
2018-07-08T19:50:13.535Z,97601.99
2018-07-08T19:52:42.798Z,97602.71
2018-07-08T19:55:12.082Z,97600.17
2018-07-08T19:57:41.142Z,97595.28
2018-07-08T20:00:10.516Z,97601.20
2018-07-08T20:02:39.634Z,97603.13
2018-07-08T20:05:08.918Z,97600.22
2018-07-08T20:07:38.353Z,97604.16
2018-07-08T20:10:07.352Z,97603.06
2018-07-08T20:12:36.648Z,97603.20
2018-07-08T20:15:05.944Z,97597.89
2018-07-08T20:17:35.749Z,97596.44
2018-07-08T20:20:04.980Z,97598.13
2018-07-08T20:22:33.966Z,97596.93
2018-07-08T20:25:02.742Z,97602.38
2018-07-08T20:27:31.693Z,97595.83
2018-07-08T20:30:00.851Z,97601.42
2018-07-08T20:32:30.136Z,97593.42
2018-07-08T20:34:59.754Z,97602.51
2018-07-08T20:37:29.045Z,97590.52
2018-07-08T20:39:58.225Z,97592.20
2018-07-08T20:42:27.346Z,97592.45
2018-07-08T20:44:56.589Z,97592.70
2018-07-08T20:47:25.827Z,97595.25
2018-07-08T20:49:54.987Z,97596.11
2018-07-08T20:52:24.167Z,97599.59
2018-07-08T20:54:53.443Z,97598.16
2018-07-08T20:57:22.656Z,97593.04
2018-07-08T20:59:52.278Z,97590.74
2018-07-08T21:02:21.429Z,97595.11
2018-07-08T21:04:50.403Z,97590.84
2018-07-08T21:07:19.740Z,97588.06
2018-07-08T21:09:48.954Z,97592.30
2018-07-08T21:12:18.226Z,97589.50
2018-07-08T21:14:47.683Z,97586.48
2018-07-08T21:17:16.838Z,97594.33
2018-07-08T21:19:45.998Z,97592.23
2018-07-08T21:22:15.358Z,97598.54
2018-07-08T21:24:44.660Z,97599.27
2018-07-08T21:27:13.749Z,97598.54
2018-07-08T21:29:42.834Z,97593.45
2018-07-08T21:32:12.050Z,97594.64
2018-07-08T21:34:41.350Z,97595.95
2018-07-08T21:37:10.647Z,97594.38
2018-07-08T21:39:39.804Z,97597.29
2018-07-08T21:42:09.043Z,97598.50
2018-07-08T21:44:38.674Z,97600.66
2018-07-08T21:47:07.632Z,97593.64
2018-07-08T21:49:36.663Z,97602.49
2018-07-08T21:52:05.692Z,97595.45
2018-07-08T21:54:34.857Z,97595.95
2018-07-08T21:57:03.833Z,97594.36
2018-07-08T21:59:33.123Z,97589.48
2018-07-08T22:02:04.760Z,97587.32
2018-07-08T22:04:34.122Z,97587.08
2018-07-08T22:07:08.162Z,97584.77
2018-07-08T22:09:36.983Z,97579.56
2018-07-08T22:12:06.261Z,97587.08
2018-07-08T22:14:35.419Z,97579.56
2018-07-08T22:17:04.648Z,97581.13
2018-07-08T22:19:33.692Z,97582.23
2018-07-08T22:22:03.285Z,97577.87
2018-07-08T22:24:32.748Z,97585.13
2018-07-08T22:27:01.878Z,97578.62
2018-07-08T22:29:31.148Z,97580.56
2018-07-08T22:32:00.499Z,97576.83
2018-07-08T22:34:29.592Z,97584.70
2018-07-08T22:36:58.782Z,97586.30
2018-07-08T22:39:27.947Z,97585.41
2018-07-08T22:41:57.217Z,97583.63
2018-07-08T22:44:26.532Z,97583.74
2018-07-08T22:46:55.794Z,97589.45
2018-07-08T22:49:24.858Z,97587.27
2018-07-08T22:51:53.964Z,97579.52
2018-07-08T22:54:23.158Z,97579.39
2018-07-08T22:56:51.927Z,97580.11
2018-07-08T22:59:20.906Z,97576.47
2018-07-08T23:03:03.600Z,97574.06
2018-07-08T23:05:32.564Z,97574.78
2018-07-08T23:08:01.643Z,97576.59
2018-07-08T23:10:31.074Z,97577.80
2018-07-08T23:13:00.374Z,97574.54
2018-07-08T23:15:29.437Z,97572.98
2018-07-08T23:17:58.731Z,97572.83
2018-07-08T23:20:28.070Z,97574.05
2018-07-08T23:22:59.306Z,97576.48
2018-07-08T23:25:28.282Z,97572.69
2018-07-08T23:27:57.742Z,97571.00
2018-07-08T23:30:26.826Z,97579.47
2018-07-08T23:32:55.790Z,97574.27
2018-07-08T23:35:24.714Z,97577.16
2018-07-08T23:37:54.376Z,97579.47
2018-07-08T23:40:23.571Z,97573.08
2018-07-08T23:42:52.938Z,97583.02
2018-07-08T23:45:21.878Z,97579.39
2018-07-08T23:47:50.703Z,97582.05
2018-07-08T23:50:19.942Z,97578.06
2018-07-08T23:52:49.275Z,97578.80
2018-07-08T23:55:18.488Z,97576.24
2018-07-08T23:57:47.660Z,97578.91
